Time;durP1;ratioP1;P1;durP2;ratioP2;P2;SDS_P1;SDS_P2;PMS_P1;PMS_P2;Temp;Humidity;BMP_temperature;BMP_pressure;BME280_temperature;BME280_humidity;BME280_pressure;Samples;Min_cycle;Max_cycle;Signal;HPM_P1;HPM_P2
2021/12/24 00:01:06;;;;;;;19.87;16.33;;;-0.70;99.90;;;;;;5076711;28;20288;-83
2021/12/24 00:03:35;;;;;;;20.87;18.03;;;-0.70;99.90;;;;;;5074719;28;20284;-82
2021/12/24 00:06:05;;;;;;;25.57;18.10;;;-0.70;99.90;;;;;;5064587;28;20220;-82
2021/12/24 00:08:34;;;;;;;21.17;16.70;;;-0.70;99.90;;;;;;5076066;28;20251;-82
2021/12/24 00:11:04;;;;;;;24.13;16.70;;;-0.70;99.90;;;;;;5061149;28;20214;-82
2021/12/24 00:13:37;;;;;;;22.90;17.10;;;-0.70;99.90;;;;;;5055982;28;20234;-82
2021/12/24 00:16:11;;;;;;;17.30;15.33;;;-0.60;99.90;;;;;;5060870;28;20213;-82
2021/12/24 00:18:48;;;;;;;21.27;15.73;;;-0.60;99.90;;;;;;5075733;28;20292;-83
2021/12/24 00:35:29;;;;;;;25.27;17.43;;;-0.60;99.90;;;;;;5066776;28;20201;-82
2021/12/24 00:38:03;;;;;;;19.17;14.80;;;-0.60;99.90;;;;;;5055720;28;20202;-83
2021/12/24 00:40:44;;;;;;;22.03;16.10;;;-0.60;99.90;;;;;;5071619;28;20283;-83
2021/12/24 00:43:21;;;;;;;25.50;17.20;;;-0.60;99.90;;;;;;5074519;28;20232;-82
2021/12/24 00:45:53;;;;;;;20.63;16.63;;;-0.60;99.90;;;;;;5075648;28;20208;-82
2021/12/24 00:48:30;;;;;;;17.47;14.50;;;-0.60;99.90;;;;;;5075611;28;20193;-82
2021/12/24 00:51:19;;;;;;;22.60;17.00;;;-0.60;99.90;;;;;;5075033;28;20228;-82
2021/12/24 00:56:41;;;;;;;20.40;17.53;;;-0.60;99.90;;;;;;5072183;28;20201;-82
2021/12/24 00:59:26;;;;;;;20.70;16.87;;;-0.60;99.90;;;;;;5055233;28;20209;-82
2021/12/24 01:02:04;;;;;;;25.40;17.90;;;-0.60;99.90;;;;;;5055265;28;20220;-82
2021/12/24 01:04:33;;;;;;;20.17;15.87;;;-0.60;99.90;;;;;;5055286;28;20205;-80
2021/12/24 01:07:04;;;;;;;19.17;16.60;;;-0.60;99.90;;;;;;5070528;28;20197;-83
2021/12/24 01:09:34;;;;;;;20.50;17.57;;;-0.60;99.90;;;;;;5073205;28;20265;-82
2021/12/24 01:12:03;;;;;;;20.83;18.50;;;-0.60;99.90;;;;;;5074609;28;20224;-82
2021/12/24 01:14:41;;;;;;;22.57;17.53;;;-0.50;99.90;;;;;;5074938;28;20197;-82
2021/12/24 01:17:27;;;;;;;30.97;19.83;;;-0.40;99.90;;;;;;5074596;28;20197;-82
2021/12/24 01:20:05;;;;;;;20.23;16.63;;;-0.40;99.90;;;;;;5060954;28;20194;-82
2021/12/24 01:25:30;;;;;;;22.20;17.40;;;-0.20;99.90;;;;;;5053625;28;20220;-82
2021/12/24 01:28:25;;;;;;;19.30;16.57;;;-0.20;99.90;;;;;;5075296;28;20211;-82
2021/12/24 01:39:37;;;;;;;20.53;16.77;;;0.20;99.90;;;;;;5091393;23;20254;-78
2021/12/24 01:44:52;;;;;;;18.40;16.40;;;0.30;99.90;;;;;;5058872;28;20261;-78
2021/12/24 01:47:22;;;;;;;16.90;13.03;;;0.40;99.90;;;;;;5056152;28;20194;-78
2021/12/24 01:49:51;;;;;;;18.03;12.10;;;0.70;99.90;;;;;;5054150;28;20242;-78
2021/12/24 01:52:21;;;;;;;14.03;10.87;;;0.80;99.90;;;;;;5054817;28;20220;-78
2021/12/24 01:54:50;;;;;;;12.23;10.90;;;1.20;99.90;;;;;;5054101;28;20226;-78
2021/12/24 01:57:18;;;;;;;11.43;10.33;;;1.40;99.90;;;;;;5054230;28;20237;-78
2021/12/24 01:59:47;;;;;;;11.37;9.47;;;1.50;99.90;;;;;;5053668;28;20334;-78
2021/12/24 02:02:16;;;;;;;9.70;8.63;;;1.70;99.90;;;;;;5053456;28;20209;-78
2021/12/24 02:04:47;;;;;;;8.00;7.20;;;2.10;99.90;;;;;;5054237;28;20202;-78
2021/12/24 02:07:16;;;;;;;9.03;7.27;;;2.40;99.90;;;;;;5053449;28;20193;-86
2021/12/24 02:09:44;;;;;;;7.23;6.13;;;2.70;99.90;;;;;;5053109;28;20317;-89
2021/12/24 02:12:14;;;;;;;7.60;6.50;;;3.20;99.90;;;;;;5053634;28;20209;-87
2021/12/24 02:14:48;;;;;;;7.82;6.70;;;3.60;99.90;;;;;;5053782;28;20198;-86
2021/12/24 02:17:39;;;;;;;10.95;6.80;;;3.90;99.90;;;;;;5053998;28;20202;-78
2021/12/24 02:28:39;;;;;;;6.80;5.97;;;4.90;99.90;;;;;;5053420;28;20225;-79
2021/12/24 02:31:09;;;;;;;6.32;5.63;;;5.00;99.90;;;;;;5052997;28;20257;-79
2021/12/24 02:33:39;;;;;;;6.20;5.10;;;5.00;99.90;;;;;;5053346;28;20204;-79
2021/12/24 02:36:09;;;;;;;6.70;5.95;;;5.10;99.90;;;;;;5053595;28;20228;-79
2021/12/24 02:38:39;;;;;;;5.53;5.03;;;5.40;99.90;;;;;;5053185;28;20202;-79
2021/12/24 02:41:09;;;;;;;8.50;4.97;;;5.40;99.90;;;;;;5053223;28;20293;-79
2021/12/24 02:43:39;;;;;;;8.07;5.95;;;5.40;99.90;;;;;;5053772;28;20232;-79
2021/12/24 02:46:09;;;;;;;7.20;4.95;;;5.40;99.90;;;;;;5053303;28;20205;-79
2021/12/24 02:54:13;;;;;;;8.55;4.20;;;6.10;99.90;;;;;;5021522;28;20293;-79
2021/12/24 02:56:48;;;;;;;5.05;4.43;;;6.10;99.90;;;;;;5053376;28;20280;-79
2021/12/24 02:59:18;;;;;;;4.28;3.95;;;6.20;99.90;;;;;;5052894;28;20267;-79
2021/12/24 03:01:49;;;;;;;11.45;4.45;;;6.30;99.90;;;;;;5053304;28;20202;-79
2021/12/24 03:04:17;;;;;;;4.65;4.25;;;6.50;99.90;;;;;;5053033;28;20200;-79
2021/12/24 03:06:49;;;;;;;4.80;4.22;;;6.50;99.90;;;;;;5052551;28;20268;-79
2021/12/24 03:09:19;;;;;;;3.80;3.50;;;6.60;99.90;;;;;;5052241;28;20297;-79
2021/12/24 03:11:50;;;;;;;4.32;3.92;;;6.70;99.90;;;;;;5052774;28;20246;-79
2021/12/24 03:14:19;;;;;;;6.90;5.10;;;6.70;99.90;;;;;;5053103;28;20198;-79
2021/12/24 03:16:56;;;;;;;4.70;4.30;;;6.70;99.90;;;;;;5053280;28;20289;-79
2021/12/24 03:19:29;;;;;;;6.85;4.65;;;6.70;99.90;;;;;;5052555;28;20324;-79
2021/12/24 03:22:11;;;;;;;5.40;3.95;;;6.70;99.90;;;;;;5052543;28;20201;-79
2021/12/24 03:24:40;;;;;;;5.72;3.75;;;6.70;99.90;;;;;;5052539;28;20239;-79
2021/12/24 03:27:12;;;;;;;6.53;4.25;;;6.80;99.90;;;;;;5053142;28;20304;-79
2021/12/24 03:29:41;;;;;;;5.25;4.70;;;6.70;99.90;;;;;;5052320;28;20229;-79
2021/12/24 03:32:10;;;;;;;7.00;4.50;;;6.80;99.90;;;;;;5052640;28;20271;-79
2021/12/24 03:34:39;;;;;;;5.25;4.75;;;6.80;99.90;;;;;;5052474;28;20225;-79
2021/12/24 03:37:09;;;;;;;4.82;4.32;;;6.70;99.90;;;;;;5052622;28;20225;-78
2021/12/24 03:39:37;;;;;;;4.30;3.90;;;6.80;99.90;;;;;;5052381;28;20252;-79
2021/12/24 03:42:07;;;;;;;3.83;3.53;;;6.80;99.90;;;;;;5052970;28;20221;-79
2021/12/24 03:44:41;;;;;;;4.88;4.38;;;6.70;99.90;;;;;;5052141;28;20237;-79
2021/12/24 03:47:12;;;;;;;5.18;4.68;;;6.70;99.90;;;;;;5032955;28;20229;-78
2021/12/24 03:49:53;;;;;;;11.15;4.55;;;6.70;99.90;;;;;;5042845;28;20281;-79
2021/12/24 03:52:39;;;;;;;5.70;4.72;;;6.70;99.90;;;;;;5052816;28;20299;-79
2021/12/24 03:55:07;;;;;;;5.65;5.07;;;6.80;99.90;;;;;;5052512;28;20304;-79
2021/12/24 03:57:40;;;;;;;4.72;4.32;;;6.70;99.90;;;;;;5052611;28;20236;-78
2021/12/24 04:00:16;;;;;;;4.78;4.38;;;6.70;99.90;;;;;;5052103;28;20217;-78
2021/12/24 04:02:45;;;;;;;10.30;4.88;;;6.60;99.90;;;;;;5052634;28;20202;-78
2021/12/24 04:05:15;;;;;;;5.32;4.75;;;6.70;99.90;;;;;;5052337;28;20206;-78
2021/12/24 04:07:45;;;;;;;7.03;4.82;;;6.70;99.90;;;;;;5052392;28;20265;-78
2021/12/24 04:10:23;;;;;;;15.98;5.55;;;6.80;99.90;;;;;;5051425;28;20283;-78
2021/12/24 04:12:52;;;;;;;13.18;4.38;;;6.80;99.90;;;;;;5051620;28;20241;-78
2021/12/24 04:15:20;;;;;;;5.07;4.40;;;6.70;99.90;;;;;;5052237;28;20237;-78
2021/12/24 04:17:49;;;;;;;5.20;4.70;;;6.70;99.90;;;;;;5055119;28;20198;-78
2021/12/24 04:25:51;;;;;;;4.88;4.47;;;6.80;99.90;;;;;;5048817;28;20225;-78
2021/12/24 04:28:20;;;;;;;6.15;4.85;;;6.90;99.90;;;;;;5055702;28;20228;-78
2021/12/24 04:30:51;;;;;;;6.65;5.07;;;6.90;99.90;;;;;;5054491;28;20320;-78
2021/12/24 04:33:25;;;;;;;5.15;4.60;;;6.90;99.90;;;;;;5055043;28;20334;-78
2021/12/24 04:35:59;;;;;;;5.15;4.45;;;7.00;99.90;;;;;;5055961;28;20263;-78
2021/12/24 04:38:45;;;;;;;4.88;4.25;;;7.00;99.90;;;;;;5055640;28;20248;-78
2021/12/24 05:01:22;;;;;;;7.55;6.00;;;6.90;99.90;;;;;;5055180;28;20252;-78
2021/12/24 05:03:52;;;;;;;8.95;6.70;;;6.90;99.90;;;;;;5055153;28;20200;-78
2021/12/24 05:06:31;;;;;;;6.40;5.68;;;6.90;99.90;;;;;;5055120;28;20290;-78
2021/12/24 05:09:07;;;;;;;6.32;5.72;;;6.80;99.90;;;;;;5039903;28;20204;-78
2021/12/24 05:11:37;;;;;;;6.22;5.68;;;6.80;99.90;;;;;;5053240;28;20232;-79
2021/12/24 05:14:05;;;;;;;5.20;4.70;;;6.80;99.90;;;;;;5055104;28;20261;-88
2021/12/24 05:16:43;;;;;;;6.50;5.90;;;6.80;99.90;;;;;;5054877;28;20221;-88
2021/12/24 05:22:00;;;;;;;5.53;4.78;;;6.80;99.90;;;;;;5054315;28;20256;-88
2021/12/24 05:24:30;;;;;;;6.82;6.10;;;6.80;99.90;;;;;;5054397;28;20197;-88
2021/12/24 05:27:03;;;;;;;4.97;4.50;;;6.90;99.90;;;;;;5054954;28;20212;-79
2021/12/24 05:29:32;;;;;;;7.35;6.05;;;6.90;99.90;;;;;;5053899;28;20245;-79
2021/12/24 05:32:02;;;;;;;4.68;3.92;;;6.90;99.90;;;;;;5054882;28;20218;-79
2021/12/24 05:34:31;;;;;;;9.57;5.22;;;7.00;99.90;;;;;;5054622;28;20210;-78
2021/12/24 05:37:00;;;;;;;5.50;4.97;;;7.00;99.90;;;;;;5054381;28;20202;-78
2021/12/24 05:39:29;;;;;;;8.80;5.35;;;7.10;99.90;;;;;;5054192;28;20245;-78
2021/12/24 05:41:57;;;;;;;6.68;5.38;;;7.30;99.90;;;;;;5054176;28;20220;-78
2021/12/24 05:44:27;;;;;;;7.50;5.80;;;7.20;99.90;;;;;;5054128;28;20229;-78
2021/12/24 05:46:55;;;;;;;5.38;4.70;;;7.30;99.90;;;;;;5054044;28;20209;-78
2021/12/24 05:49:24;;;;;;;5.60;5.00;;;7.30;99.90;;;;;;5053828;28;20301;-78
2021/12/24 05:51:52;;;;;;;5.50;5.00;;;7.40;99.90;;;;;;5054437;28;20273;-79
2021/12/24 05:54:23;;;;;;;4.18;3.78;;;7.50;99.90;;;;;;5053221;28;20202;-79
2021/12/24 05:56:52;;;;;;;5.03;4.55;;;7.50;99.90;;;;;;5053845;28;20284;-78
2021/12/24 05:59:20;;;;;;;4.93;3.80;;;7.70;99.90;;;;;;5053833;28;20272;-78
2021/12/24 06:01:50;;;;;;;5.47;4.80;;;7.70;99.90;;;;;;5054234;28;20236;-78
2021/12/24 06:04:18;;;;;;;5.07;4.57;;;7.80;99.90;;;;;;5054307;28;20198;-78
2021/12/24 06:06:47;;;;;;;3.72;3.40;;;7.90;99.90;;;;;;5053801;28;20220;-78
2021/12/24 06:09:15;;;;;;;5.07;3.85;;;7.90;99.90;;;;;;5053508;28;20297;-78
2021/12/24 06:11:43;;;;;;;3.45;3.15;;;8.00;99.90;;;;;;5053408;28;20317;-78
2021/12/24 06:14:12;;;;;;;4.30;3.70;;;8.10;99.90;;;;;;5052584;28;20493;-78
2021/12/24 06:16:48;;;;;;;4.57;3.60;;;8.10;99.90;;;;;;5054182;28;20194;-78
2021/12/24 06:19:20;;;;;;;4.65;4.07;;;8.20;99.90;;;;;;5037853;28;20304;-78
2021/12/24 06:21:48;;;;;;;5.28;4.10;;;8.30;99.90;;;;;;5054434;28;20212;-79
2021/12/24 06:24:18;;;;;;;16.45;4.18;;;8.40;99.90;;;;;;5053361;28;20256;-78
2021/12/24 06:26:46;;;;;;;3.63;3.33;;;8.30;99.90;;;;;;5053908;28;20323;-78
2021/12/24 06:29:15;;;;;;;5.18;3.67;;;8.40;99.90;;;;;;5053590;28;20317;-78
2021/12/24 06:31:44;;;;;;;3.42;3.13;;;8.40;99.90;;;;;;5053840;28;20202;-78
2021/12/24 06:34:13;;;;;;;4.63;4.20;;;8.30;99.90;;;;;;5053260;28;20223;-78
2021/12/24 06:36:44;;;;;;;6.15;3.85;;;8.40;99.90;;;;;;5053695;28;20241;-78
2021/12/24 06:39:13;;;;;;;4.53;3.58;;;8.30;99.90;;;;;;5051854;28;20217;-78
2021/12/24 06:41:42;;;;;;;3.55;3.25;;;8.20;99.90;;;;;;5052214;28;20240;-78
2021/12/24 06:44:12;;;;;;;3.20;2.95;;;8.30;99.90;;;;;;5053537;28;20213;-79
2021/12/24 06:46:42;;;;;;;4.95;4.03;;;8.40;99.90;;;;;;5053989;28;20209;-78
2021/12/24 06:49:11;;;;;;;3.25;2.95;;;8.40;99.90;;;;;;5053390;28;20229;-78
2021/12/24 06:51:40;;;;;;;3.10;2.90;;;8.40;99.90;;;;;;5053390;28;20237;-78
2021/12/24 06:54:10;;;;;;;3.38;3.05;;;8.40;99.90;;;;;;5053358;28;20249;-78
2021/12/24 06:56:43;;;;;;;3.28;3.03;;;8.50;99.90;;;;;;5053405;28;20209;-87
2021/12/24 06:59:12;;;;;;;5.00;3.70;;;8.50;99.90;;;;;;5052819;28;20218;-78
2021/12/24 07:01:40;;;;;;;4.68;3.22;;;8.40;99.90;;;;;;5053509;28;20206;-78
2021/12/24 07:04:09;;;;;;;3.25;3.00;;;8.40;99.90;;;;;;5053059;28;20186;-79
2021/12/24 07:06:43;;;;;;;3.60;3.30;;;8.50;99.90;;;;;;5053161;28;20194;-78
2021/12/24 07:09:14;;;;;;;4.85;3.35;;;8.60;99.90;;;;;;5052865;28;20237;-79
2021/12/24 07:11:43;;;;;;;3.80;3.50;;;8.70;99.90;;;;;;5052092;28;20197;-79
2021/12/24 07:14:12;;;;;;;2.88;2.65;;;8.70;99.90;;;;;;5052058;28;20217;-79
2021/12/24 07:16:45;;;;;;;3.35;3.05;;;8.70;99.90;;;;;;5059486;28;20202;-79
2021/12/24 07:19:14;;;;;;;3.17;2.97;;;8.90;99.90;;;;;;5050275;28;20251;-86
2021/12/24 07:21:42;;;;;;;3.47;2.75;;;8.90;99.90;;;;;;5053384;28;20205;-86
2021/12/24 07:24:12;;;;;;;2.83;2.60;;;9.00;99.90;;;;;;5053392;28;20201;-86
2021/12/24 07:26:40;;;;;;;2.17;2.05;;;9.10;99.90;;;;;;5053173;28;20225;-87
2021/12/24 07:29:09;;;;;;;2.47;2.25;;;9.10;99.90;;;;;;5052657;28;20218;-79
2021/12/24 07:31:37;;;;;;;1.60;1.50;;;9.20;99.90;;;;;;5053269;28;20206;-79
2021/12/24 07:34:06;;;;;;;2.88;2.33;;;9.30;99.90;;;;;;5052695;28;20214;-79
2021/12/24 07:36:40;;;;;;;2.05;1.80;;;9.40;99.90;;;;;;5052831;28;20205;-81
2021/12/24 07:39:09;;;;;;;2.17;2.03;;;9.60;99.90;;;;;;5052331;28;20363;-81
2021/12/24 07:41:42;;;;;;;2.50;2.30;;;9.80;99.90;;;;;;5053258;28;20228;-78
2021/12/24 07:44:13;;;;;;;2.20;1.75;;;9.80;99.90;;;;;;5052919;28;20194;-86
2021/12/24 07:46:46;;;;;;;1.65;1.55;;;9.90;99.90;;;;;;5052514;28;20293;-86
2021/12/24 07:49:30;;;;;;;1.80;1.70;;;10.00;99.90;;;;;;5052066;28;20225;-86
2021/12/24 07:52:08;;;;;;;1.98;1.88;;;10.00;99.90;;;;;;5053642;28;20201;-86
2021/12/24 07:54:39;;;;;;;1.80;1.60;;;10.00;99.90;;;;;;5056248;28;20217;-90
2021/12/24 07:57:13;;;;;;;1.50;1.40;;;10.00;99.90;;;;;;5056735;28;20213;-90
2021/12/24 07:59:44;;;;;;;2.97;1.98;;;10.00;99.90;;;;;;5056403;28;20218;-89
2021/12/24 08:02:25;;;;;;;2.67;2.25;;;10.00;99.90;;;;;;5056518;28;20240;-90
2021/12/24 08:04:54;;;;;;;2.75;2.47;;;9.90;99.90;;;;;;5050745;28;20209;-89
2021/12/24 08:07:24;;;;;;;2.13;2.03;;;9.90;99.90;;;;;;5036462;28;20216;-89
2021/12/24 08:09:53;;;;;;;1.90;1.80;;;9.90;99.90;;;;;;5049418;28;20225;-92
2021/12/24 08:12:23;;;;;;;2.67;2.33;;;9.90;99.90;;;;;;5056785;28;20301;-84
2021/12/24 08:14:52;;;;;;;2.15;1.95;;;10.00;99.90;;;;;;5056467;28;20300;-86
2021/12/24 08:17:20;;;;;;;2.83;2.22;;;10.00;99.90;;;;;;5056485;28;20201;-85
2021/12/24 08:19:49;;;;;;;3.70;1.88;;;10.00;99.90;;;;;;5055735;28;20226;-88
2021/12/24 08:22:17;;;;;;;2.33;2.13;;;10.00;99.90;;;;;;5068916;28;20247;-87
2021/12/24 08:24:46;;;;;;;1.58;1.40;;;9.90;99.90;;;;;;5078114;28;20197;-88
2021/12/24 08:27:14;;;;;;;2.60;1.95;;;9.80;99.90;;;;;;5069338;28;20197;-88
2021/12/24 08:29:44;;;;;;;1.60;1.50;;;9.70;99.90;;;;;;5085263;28;20217;-89
2021/12/24 08:32:13;;;;;;;2.60;2.40;;;9.60;99.90;;;;;;5068196;28;20202;-89
2021/12/24 08:34:42;;;;;;;2.33;2.00;;;9.40;99.90;;;;;;5062223;28;20221;-90
2021/12/24 08:37:11;;;;;;;2.10;1.90;;;9.40;99.90;;;;;;5076210;28;20201;-88
2021/12/24 08:39:42;;;;;;;1.63;1.52;;;9.30;99.90;;;;;;5075431;28;20315;-89
2021/12/24 08:42:11;;;;;;;1.92;1.83;;;9.30;99.90;;;;;;5075697;28;20201;-89
2021/12/24 08:44:39;;;;;;;1.85;1.73;;;9.30;99.90;;;;;;5075620;28;20201;-82
2021/12/24 08:47:09;;;;;;;1.73;1.63;;;9.30;99.90;;;;;;5075642;28;20201;-80
2021/12/24 08:49:38;;;;;;;2.30;2.13;;;9.20;99.90;;;;;;5037287;28;20288;-82
2021/12/24 08:52:07;;;;;;;2.28;2.00;;;9.30;99.90;;;;;;5061058;28;20214;-82
2021/12/24 08:54:54;;;;;;;4.05;1.90;;;9.20;99.90;;;;;;5064466;28;20241;-82
2021/12/24 08:57:23;;;;;;;2.55;2.05;;;9.30;99.90;;;;;;5055171;28;20230;-86
2021/12/24 08:59:51;;;;;;;1.83;1.73;;;9.40;99.90;;;;;;5054865;28;20245;-88
2021/12/24 09:02:25;;;;;;;2.38;2.17;;;9.60;99.90;;;;;;5055550;28;20210;-84
2021/12/24 09:04:54;;;;;;;1.90;1.80;;;9.60;99.90;;;;;;5055608;28;20223;-80
2021/12/24 09:07:25;;;;;;;3.78;1.90;;;9.70;99.90;;;;;;5075089;28;20201;-80
2021/12/24 09:09:53;;;;;;;1.33;1.20;;;9.70;99.90;;;;;;5071940;28;20274;-80
2021/12/24 09:12:45;;;;;;;1.55;1.45;;;9.80;99.90;;;;;;5055415;28;20237;-80
2021/12/24 09:15:18;;;;;;;2.83;1.77;;;9.90;99.90;;;;;;5053505;28;20233;-79
2021/12/24 09:17:48;;;;;;;1.63;1.52;;;10.00;99.90;;;;;;5054295;28;20208;-92
2021/12/24 09:20:22;;;;;;;1.60;1.50;;;10.00;99.90;;;;;;5054223;28;20274;-93
2021/12/24 09:22:51;;;;;;;2.10;1.90;;;10.20;99.90;;;;;;5054756;28;20204;-81
2021/12/24 09:25:22;;;;;;;1.67;1.58;;;10.20;99.90;;;;;;5054765;28;20197;-80
2021/12/24 09:27:50;;;;;;;1.88;1.77;;;10.30;99.90;;;;;;5054101;28;20232;-81
2021/12/24 09:30:19;;;;;;;2.22;1.80;;;10.30;99.90;;;;;;5053931;28;20214;-81
2021/12/24 09:32:53;;;;;;;1.00;1.00;;;10.40;99.90;;;;;;5054745;28;20206;-81
2021/12/24 09:35:26;;;;;;;1.90;1.70;;;10.60;99.90;;;;;;5054678;28;20218;-81
2021/12/24 09:37:55;;;;;;;1.42;1.33;;;10.60;99.90;;;;;;5054548;28;20206;-81
2021/12/24 09:40:24;;;;;;;1.65;1.30;;;10.60;99.90;;;;;;5053964;28;20238;-81
2021/12/24 09:42:53;;;;;;;1.70;1.60;;;10.70;99.90;;;;;;5053708;28;20216;-81
2021/12/24 09:45:22;;;;;;;1.00;1.00;;;10.70;99.90;;;;;;5054209;28;20209;-81
2021/12/24 09:47:52;;;;;;;1.30;1.20;;;10.70;99.90;;;;;;5054517;28;20210;-81
2021/12/24 09:50:23;;;;;;;1.60;1.50;;;10.80;99.90;;;;;;5053609;28;20221;-81
2021/12/24 09:52:52;;;;;;;2.08;1.50;;;10.70;99.90;;;;;;5054587;28;20197;-81
2021/12/24 09:55:22;;;;;;;1.55;1.42;;;10.80;99.90;;;;;;5053996;28;20221;-81
2021/12/24 09:57:51;;;;;;;2.92;1.50;;;10.80;99.90;;;;;;5054419;28;20214;-80
2021/12/24 10:00:24;;;;;;;2.05;1.23;;;10.80;99.90;;;;;;5053221;28;20222;-81
2021/12/24 10:02:57;;;;;;;1.10;1.10;;;10.80;99.90;;;;;;5054039;28;20228;-81
2021/12/24 10:05:32;;;;;;;1.25;1.20;;;10.90;99.90;;;;;;5054011;28;20210;-81
2021/12/24 10:08:09;;;;;;;1.50;1.40;;;10.80;99.90;;;;;;5033897;28;20194;-80
2021/12/24 10:10:41;;;;;;;1.23;1.20;;;10.80;99.90;;;;;;5045494;28;20220;-87
2021/12/24 10:13:28;;;;;;;1.55;1.42;;;10.80;99.90;;;;;;5060603;28;20209;-88
2021/12/24 10:15:58;;;;;;;1.42;1.33;;;10.80;99.90;;;;;;5051084;28;20217;-88
2021/12/24 10:18:30;;;;;;;1.60;1.50;;;10.80;99.90;;;;;;5052809;28;20248;-88
2021/12/24 10:21:01;;;;;;;1.60;1.50;;;10.80;99.90;;;;;;5032802;28;20234;-87
2021/12/24 10:23:48;;;;;;;1.55;1.45;;;10.80;99.90;;;;;;5033413;28;20211;-81
2021/12/24 10:26:27;;;;;;;1.50;1.40;;;10.90;99.90;;;;;;5043166;28;20221;-89
2021/12/24 10:28:59;;;;;;;1.45;1.35;;;10.90;99.90;;;;;;5052573;28;20217;-89
2021/12/24 10:31:32;;;;;;;2.45;2.25;;;10.90;99.90;;;;;;5052963;28;20222;-89
2021/12/24 10:34:26;;;;;;;1.40;1.30;;;10.90;99.90;;;;;;5052726;28;20252;-81
2021/12/24 10:37:00;;;;;;;2.50;2.05;;;10.90;99.90;;;;;;5052935;28;20201;-81
2021/12/24 10:39:31;;;;;;;2.03;1.50;;;11.00;99.90;;;;;;5052083;28;20237;-83
2021/12/24 10:42:06;;;;;;;5.03;1.92;;;11.00;99.90;;;;;;5052673;28;20198;-88
2021/12/24 10:44:36;;;;;;;1.75;1.63;;;11.00;99.90;;;;;;5052945;28;20259;-87
2021/12/24 10:47:09;;;;;;;4.57;1.88;;;11.00;99.90;;;;;;5052714;28;20210;-88
2021/12/24 10:50:05;;;;;;;1.60;1.50;;;11.00;99.90;;;;;;5053882;28;20228;-81
2021/12/24 10:55:35;;;;;;;5.10;1.38;;;11.50;99.90;;;;;;5051877;28;20214;-81
2021/12/24 10:58:06;;;;;;;40.00;26.63;;;11.60;99.90;;;;;;5052705;28;20202;-80
2021/12/24 11:00:39;;;;;;;271.52;140.13;;;11.50;99.90;;;;;;5051307;28;20279;-79
2021/12/24 11:03:09;;;;;;;82.13;36.72;;;11.50;99.90;;;;;;5051692;28;20204;-80
2021/12/24 11:05:42;;;;;;;22.42;15.23;;;11.30;99.90;;;;;;5052383;28;20205;-79
2021/12/24 11:08:15;;;;;;;12.93;8.35;;;11.20;99.90;;;;;;5052302;28;20221;-81
2021/12/24 11:10:45;;;;;;;3.95;3.47;;;11.20;99.90;;;;;;5051524;28;20245;-80
2021/12/24 11:13:16;;;;;;;4.20;2.58;;;11.20;99.90;;;;;;5053189;28;20236;-80
2021/12/24 11:15:47;;;;;;;2.83;1.92;;;11.20;99.90;;;;;;5053011;28;20217;-79
2021/12/24 11:18:19;;;;;;;4.05;3.35;;;11.20;99.90;;;;;;5033504;28;20258;-82
2021/12/24 11:20:56;;;;;;;1.58;1.48;;;11.10;99.90;;;;;;5032507;28;20280;-82
2021/12/24 11:23:26;;;;;;;3.38;2.50;;;11.10;99.90;;;;;;5033151;28;20206;-81
2021/12/24 11:25:56;;;;;;;2.95;1.90;;;11.00;99.90;;;;;;5033165;28;20199;-81
2021/12/24 11:28:27;;;;;;;1.88;1.65;;;10.80;99.90;;;;;;5036697;28;20210;-85
2021/12/24 11:30:58;;;;;;;1.88;1.70;;;10.60;99.90;;;;;;5039627;28;20229;-82
2021/12/24 11:33:29;;;;;;;1.63;1.52;;;10.60;99.90;;;;;;5056598;28;20206;-82
2021/12/24 11:36:00;;;;;;;1.83;1.63;;;10.60;99.90;;;;;;5057508;28;20252;-88
2021/12/24 11:38:32;;;;;;;2.33;2.00;;;10.60;99.90;;;;;;5057163;28;20285;-81
2021/12/24 11:41:02;;;;;;;1.73;1.63;;;10.60;99.90;;;;;;5056319;28;20260;-81
2021/12/24 11:43:35;;;;;;;8.15;2.28;;;10.60;99.90;;;;;;5056312;28;20290;-81
2021/12/24 11:46:06;;;;;;;1.75;1.65;;;10.60;99.90;;;;;;5056756;28;20201;-81
2021/12/24 11:48:35;;;;;;;1.42;1.33;;;10.60;99.90;;;;;;5056835;28;20284;-81
2021/12/24 11:51:09;;;;;;;1.58;1.48;;;10.60;99.90;;;;;;5056262;28;20228;-82
2021/12/24 11:53:44;;;;;;;3.20;1.90;;;10.60;99.90;;;;;;5056863;28;20201;-82
2021/12/24 11:56:16;;;;;;;1.75;1.65;;;10.60;99.90;;;;;;5056346;28;20271;-82
2021/12/24 11:58:47;;;;;;;2.10;1.92;;;10.50;99.90;;;;;;5056608;28;20205;-82
2021/12/24 12:01:17;;;;;;;1.88;1.75;;;10.50;99.90;;;;;;5056298;28;20198;-82
2021/12/24 12:03:49;;;;;;;3.38;1.50;;;10.50;99.90;;;;;;5056497;28;20206;-85
2021/12/24 12:06:36;;;;;;;1.92;1.83;;;10.50;99.90;;;;;;5056467;28;20251;-87
2021/12/24 12:09:08;;;;;;;1.58;1.48;;;10.40;99.90;;;;;;5056152;28;20271;-88
2021/12/24 12:11:40;;;;;;;2.45;2.25;;;10.50;99.90;;;;;;5056601;28;20240;-94
2021/12/24 12:14:26;;;;;;;1.67;1.58;;;10.40;99.90;;;;;;5057295;28;20205;-91
2021/12/24 12:16:57;;;;;;;4.13;3.08;;;10.40;99.90;;;;;;5056731;28;20218;-83
2021/12/24 12:19:30;;;;;;;3.03;1.73;;;10.50;99.90;;;;;;5056130;28;20225;-85
2021/12/24 12:22:16;;;;;;;1.92;1.83;;;10.50;99.90;;;;;;5056266;28;20210;-87
2021/12/24 12:27:37;;;;;;;2.15;1.95;;;10.40;99.90;;;;;;5056336;28;20202;-82
2021/12/24 12:30:36;;;;;;;1.73;1.63;;;10.40;99.90;;;;;;5055170;28;20221;-82
2021/12/24 12:33:12;;;;;;;1.30;1.20;;;10.40;99.90;;;;;;5033157;28;20225;-80
2021/12/24 12:35:45;;;;;;;1.85;1.73;;;10.30;99.90;;;;;;5056183;28;20229;-82
2021/12/24 12:38:36;;;;;;;2.95;2.40;;;10.30;99.90;;;;;;5054359;28;20255;-82
2021/12/24 12:41:26;;;;;;;3.03;1.88;;;10.30;99.90;;;;;;5055774;28;20257;-82
2021/12/24 12:43:56;;;;;;;1.73;1.63;;;10.30;99.90;;;;;;5055852;28;20198;-82
2021/12/24 12:46:31;;;;;;;1.60;1.48;;;10.20;99.90;;;;;;5096880;23;20231;-91
2021/12/24 12:49:00;;;;;;;1.40;1.30;;;10.20;99.90;;;;;;5074703;28;20196;-91
2021/12/24 12:51:51;;;;;;;1.73;1.63;;;10.10;99.90;;;;;;5074860;28;20276;-91
2021/12/24 12:54:38;;;;;;;1.80;1.70;;;10.10;99.90;;;;;;5074498;28;20204;-86
2021/12/24 12:57:29;;;;;;;1.40;1.30;;;10.10;99.90;;;;;;5074783;28;20217;-86
2021/12/24 13:00:24;;;;;;;1.27;1.27;;;10.00;99.90;;;;;;5066410;28;20205;-86
2021/12/24 13:03:12;;;;;;;2.05;1.85;;;10.00;99.90;;;;;;5075145;28;20202;-86
2021/12/24 13:05:59;;;;;;;1.98;1.88;;;10.10;99.90;;;;;;5074965;28;20229;-86
2021/12/24 13:08:29;;;;;;;1.92;1.83;;;10.10;99.90;;;;;;5074570;28;20225;-86
2021/12/24 13:11:03;;;;;;;2.10;1.83;;;10.10;99.90;;;;;;5073756;28;20227;-86
2021/12/24 13:13:32;;;;;;;2.20;1.88;;;10.10;99.90;;;;;;5074453;28;20209;-86
2021/12/24 13:16:00;;;;;;;4.13;1.85;;;10.10;99.90;;;;;;5073775;28;20316;-86
2021/12/24 13:18:32;;;;;;;3.30;1.90;;;10.10;99.90;;;;;;5074456;28;20272;-86
2021/12/24 13:23:49;;;;;;;2.03;1.92;;;10.10;99.90;;;;;;5070954;28;20270;-86
2021/12/24 13:26:21;;;;;;;1.90;1.63;;;10.10;99.90;;;;;;5065278;28;20252;-86
2021/12/24 13:29:02;;;;;;;3.65;2.30;;;10.10;99.90;;;;;;5070322;28;20297;-86
2021/12/24 13:31:32;;;;;;;2.55;1.95;;;10.10;99.90;;;;;;5053888;28;20205;-86
2021/12/24 13:34:01;;;;;;;2.03;1.83;;;10.10;99.90;;;;;;5040430;28;20214;-86
2021/12/24 13:36:31;;;;;;;1.80;1.65;;;10.20;99.90;;;;;;5053870;28;20222;-86
2021/12/24 13:39:10;;;;;;;2.17;1.77;;;10.10;99.90;;;;;;5053444;28;20240;-86
2021/12/24 13:41:43;;;;;;;2.45;1.98;;;10.10;99.90;;;;;;5054525;28;20232;-86
2021/12/24 13:44:21;;;;;;;1.88;1.63;;;10.10;99.90;;;;;;5053118;28;20226;-86
2021/12/24 13:47:11;;;;;;;2.15;1.95;;;10.10;99.90;;;;;;5054229;28;20261;-86
2021/12/24 13:50:08;;;;;;;3.65;2.35;;;10.10;99.90;;;;;;5053237;28;20205;-86
2021/12/24 13:55:26;;;;;;;4.85;1.65;;;10.10;99.90;;;;;;5053587;28;20226;-85
2021/12/24 13:57:58;;;;;;;2.08;1.88;;;10.10;99.90;;;;;;5053421;28;20312;-86
2021/12/24 14:00:28;;;;;;;1.75;1.65;;;10.10;99.90;;;;;;5033765;28;20261;-86
2021/12/24 14:02:59;;;;;;;3.05;1.77;;;10.10;99.90;;;;;;5050898;28;20197;-87
2021/12/24 14:05:29;;;;;;;2.20;2.00;;;10.00;99.90;;;;;;5053638;28;20236;-87
2021/12/24 14:08:06;;;;;;;2.03;1.83;;;10.00;99.90;;;;;;5059615;28;20205;-87
2021/12/24 14:10:35;;;;;;;5.78;1.73;;;10.00;99.90;;;;;;5049826;28;20272;-87
2021/12/24 14:13:09;;;;;;;2.20;2.00;;;10.00;99.90;;;;;;5066438;28;20189;-87
2021/12/24 14:15:57;;;;;;;7.32;2.40;;;10.00;99.90;;;;;;5063249;28;20262;-87
2021/12/24 14:18:44;;;;;;;1.95;1.75;;;9.90;99.90;;;;;;5062249;28;20229;-87
2021/12/24 14:21:47;;;;;;;1.88;1.67;;;9.90;99.90;;;;;;5059037;28;20225;-87
2021/12/24 14:24:27;;;;;;;1.70;1.60;;;9.90;99.90;;;;;;5064146;28;20224;-87
2021/12/24 14:26:58;;;;;;;1.67;1.58;;;9.80;99.90;;;;;;5071026;28;20209;-87
2021/12/24 14:29:32;;;;;;;2.40;2.20;;;9.80;99.90;;;;;;5073017;28;20259;-87
2021/12/24 14:32:02;;;;;;;2.15;1.92;;;9.70;99.90;;;;;;5072753;28;20231;-87
2021/12/24 14:34:42;;;;;;;2.25;2.05;;;9.70;99.90;;;;;;5072539;28;20231;-87
2021/12/24 14:37:12;;;;;;;2.13;1.75;;;9.70;99.90;;;;;;5072671;28;20321;-87
2021/12/24 14:39:44;;;;;;;1.80;1.70;;;9.70;99.90;;;;;;5072441;28;20205;-87
2021/12/24 14:42:21;;;;;;;3.33;1.80;;;9.70;99.90;;;;;;5072874;28;20212;-87
2021/12/24 14:44:53;;;;;;;2.60;2.03;;;9.70;99.90;;;;;;5072613;28;20309;-87